CYHD

Dryden Regional Airport

Dryden, Ontario, Canada
METAR CYHD 161700Z AUTO 25012G17KT 9SM BKN100 27/11 A2996 RMK SLP148 DENSITY ALT 3000FT
Observed Flight Rules
Aug-16 @ 17:00 UTC (35 minutes ago) Visual Flight Rules
Wind Visibility Clouds
250° at 12 knots
 Gusting to 17 knots
9 miles
  • Broken at 10,000' AGL
Temperatures Readings
Current 27°C / 81°F
Dewpoint 11°C / 52°F
Humidity 37%
Altimeter 29.96" Hg
Pressure 1014.8 hPa
Elevation 413
METAR CYHD 161700Z AUTO 25012G17KT 9SM BKN100 27/11 A2996 RMK SLP148 DENSITY ALT 3000FT
Observed Flight Rules
Aug-16 @ 17:00 UTC
(35 minutes ago)
VFR
Wind Visibility
250° at 12 knots
 Gusting to 17 knots
9 miles
Clouds
  • Broken at 10,000' AGL
Temperature Dewpoint
27°C / 81°F 11°C / 52°F
Humidity Altimeter Pressure
37% 29.96" Hg 1014.8 hPa